EZY58UH EGGP-LGKR
Flight info
| Callsign | EZY58UH |
|---|---|
| Flight time | N/A |
| Altitude | 37000 |
| Route | NANTI2V NANTI L8 HON L15 BIG UL9 KONAN DCT KOK DCT DEMUL DCT PITES DCT EDISA DCT PICWI DCT UTABA DCT BEMKI DCT ELMEM DCT DIRAB DCT VESAL DCT VAKSU DCT RODON DCT LIMJA N732 PITAS PITAS2J |
| Aircraft | A320/M-SDE3FGHIRWY/LB1 |
Departure
| Time | N/A |
|---|---|
| Airport | Liverpool John Lennon Airport (EGGP) |
Arrival
| Time | 2026-04-30 18:12 |
|---|---|
| Airport | Corfu Ioannis Kapodistrias International Airport (LGKR) |
| Time | Latitude | Longitude | Altitude | Speed | Heading |
|---|---|---|---|---|---|
| 2026-04-30 17:39 | 43.40315 | 16.53736 | 35198 ft | 500 kts | 134° |
| 2026-04-30 17:42 | 42.92503 | 17.23811 | 35188 ft | 505 kts | 135° |
| 2026-04-30 17:43 | 42.68308 | 17.58596 | 35172 ft | 506 kts | 136° |
| 2026-04-30 17:44 | 42.39060 | 18.00126 | 35131 ft | 508 kts | 137° |
| 2026-04-30 17:47 | 41.93933 | 18.60488 | 35149 ft | 505 kts | 147° |
| 2026-04-30 17:48 | 41.54855 | 19.00786 | 35112 ft | 508 kts | 148° |
| 2026-04-30 17:49 | 41.30458 | 19.17503 | 35105 ft | 490 kts | 167° |
| 2026-04-30 17:50 | 41.04867 | 19.29938 | 35089 ft | 489 kts | 167° |
| 2026-04-30 17:52 | 40.66649 | 19.48325 | 35075 ft | 487 kts | 167° |
| 2026-04-30 17:53 | 40.44875 | 19.58680 | 34900 ft | 485 kts | 167° |
| 2026-04-30 17:54 | 40.32190 | 19.64675 | 31226 ft | 487 kts | 166° |
| 2026-04-30 17:55 | 40.19286 | 19.70761 | 26455 ft | 497 kts | 166° |
| 2026-04-30 17:56 | 40.06355 | 19.76816 | 22444 ft | 483 kts | 166° |
| 2026-04-30 17:57 | 39.97042 | 19.81187 | 20069 ft | 465 kts | 165° |
| 2026-04-30 17:58 | 39.88027 | 19.85358 | 17824 ft | 452 kts | 167° |
| 2026-04-30 17:59 | 39.77316 | 19.81654 | 15167 ft | 395 kts | 233° |
| 2026-04-30 18:00 | 39.70339 | 19.71142 | 12946 ft | 380 kts | 226° |
| 2026-04-30 18:00 | 39.64790 | 19.65498 | 11318 ft | 374 kts | 216° |
| 2026-04-30 18:01 | 39.60387 | 19.62402 | 11000 ft | 347 kts | 207° |
| 2026-04-30 18:02 | 39.54114 | 19.59449 | 10269 ft | 301 kts | 198° |
| 2026-04-30 18:02 | 39.47979 | 19.58009 | 9745 ft | 299 kts | 188° |
| 2026-04-30 18:03 | 39.42074 | 19.59724 | 8896 ft | 312 kts | 136° |
| 2026-04-30 18:04 | 39.40190 | 19.67363 | 7187 ft | 298 kts | 93° |
| 2026-04-30 18:05 | 39.39793 | 19.77709 | 4994 ft | 285 kts | 85° |
| 2026-04-30 18:06 | 39.39969 | 19.87496 | 3924 ft | 240 kts | 77° |
| 2026-04-30 18:07 | 39.41731 | 19.95398 | 3492 ft | 213 kts | 62° |
| 2026-04-30 18:08 | 39.45098 | 19.96773 | 2913 ft | 176 kts | 342° |
| 2026-04-30 18:09 | 39.49416 | 19.95148 | 2009 ft | 149 kts | 342° |
| 2026-04-30 18:10 | 39.53071 | 19.93778 | 1274 ft | 133 kts | 341° |
| 2026-04-30 18:11 | 39.56614 | 19.92275 | 572 ft | 137 kts | 338° |
| 2026-04-30 18:11 | 39.59452 | 19.91406 | 32 ft | 140 kts | 347° |
| 2026-04-30 18:12 | 39.60553 | 19.91180 | 18 ft | 2 kts | 26° |
| 2026-04-30 18:13 | 39.60603 | 19.91219 | 18 ft | 5 kts | 47° |
| 2026-04-30 18:13 | 39.60622 | 19.91324 | 18 ft | 4 kts | 77° |
| 2026-04-30 18:14 | 39.60628 | 19.91362 | 18 ft | 0 kts | 79° |